Time;durP1;ratioP1;P1;durP2;ratioP2;P2;SDS_P1;SDS_P2;PMS_P1;PMS_P2;Temp;Humidity;BMP_temperature;BMP_pressure;BME280_temperature;BME280_humidity;BME280_pressure;Samples;Min_cycle;Max_cycle;Signal;HPM_P1;HPM_P2
2022/09/16 00:01:33;;;;;;;0.40;0.32;;;21.50;59.20;;;;;;6213451;28;20038;-72
2022/09/16 00:04:34;;;;;;;0.40;0.22;;;21.50;59.10;;;;;;6215165;28;20026;-72
2022/09/16 00:07:35;;;;;;;0.30;0.30;;;21.50;59.40;;;;;;6214973;28;20456;-73
2022/09/16 00:10:35;;;;;;;1.25;0.40;;;21.50;59.30;;;;;;6215826;28;20127;-72
2022/09/16 00:13:36;;;;;;;0.35;0.30;;;21.50;59.30;;;;;;6216085;28;20074;-73
2022/09/16 00:16:37;;;;;;;0.45;0.30;;;21.50;59.10;;;;;;6214446;28;20049;-72
2022/09/16 00:19:38;;;;;;;0.47;0.47;;;21.50;59.50;;;;;;6222368;28;20093;-72
2022/09/16 00:22:38;;;;;;;0.25;0.20;;;21.50;59.40;;;;;;6213773;28;20092;-72
2022/09/16 00:25:40;;;;;;;0.25;0.25;;;21.50;59.30;;;;;;6214032;28;21389;-72
2022/09/16 00:28:40;;;;;;;0.50;0.35;;;21.50;59.10;;;;;;6214808;28;20136;-72
2022/09/16 00:31:41;;;;;;;0.65;0.30;;;21.50;60.20;;;;;;6214839;28;20030;-72
2022/09/16 00:34:41;;;;;;;0.82;0.40;;;21.50;59.50;;;;;;6213631;28;20034;-72
2022/09/16 00:37:42;;;;;;;1.05;0.45;;;21.50;59.30;;;;;;6214587;28;20047;-72
2022/09/16 00:40:44;;;;;;;0.50;0.40;;;21.50;59.30;;;;;;6215654;28;20042;-73
2022/09/16 00:43:54;;;;;;;1.17;0.40;;;21.50;59.40;;;;;;6221129;28;20065;-72
2022/09/16 00:46:55;;;;;;;0.50;0.38;;;21.50;59.50;;;;;;6215625;28;20545;-72
2022/09/16 00:50:01;;;;;;;0.30;0.30;;;21.50;59.50;;;;;;6215872;28;20034;-72
2022/09/16 00:53:02;;;;;;;0.28;0.28;;;21.50;59.00;;;;;;6215891;28;20034;-72
2022/09/16 00:56:08;;;;;;;1.17;0.50;;;21.50;59.50;;;;;;6215477;28;20044;-72
2022/09/16 00:59:16;;;;;;;0.40;0.40;;;21.50;59.40;;;;;;6215724;28;20053;-72
2022/09/16 01:02:19;;;;;;;0.63;0.30;;;21.50;59.30;;;;;;6215637;28;20477;-72
2022/09/16 01:05:24;;;;;;;0.35;0.30;;;21.50;59.20;;;;;;6214472;28;20026;-72
2022/09/16 01:08:25;;;;;;;0.35;0.32;;;21.50;59.50;;;;;;6194113;28;20473;-72
2022/09/16 01:11:25;;;;;;;0.50;0.40;;;21.50;59.10;;;;;;6195381;28;20022;-72
2022/09/16 01:18:04;;;;;;;0.73;0.40;;;21.50;59.50;;;;;;6216987;28;20030;-72
2022/09/16 01:21:30;;;;;;;0.88;0.40;;;21.40;59.40;;;;;;6218420;28;20030;-73
2022/09/16 01:24:51;;;;;;;0.80;0.43;;;21.50;59.50;;;;;;6218010;28;20419;-72
2022/09/16 01:28:25;;;;;;;0.40;0.32;;;21.40;59.30;;;;;;6219273;28;20034;-73
2022/09/16 01:31:48;;;;;;;0.50;0.22;;;21.50;59.40;;;;;;6219535;28;20022;-72
2022/09/16 01:35:08;;;;;;;0.77;0.50;;;21.50;59.40;;;;;;6219526;28;20099;-72
2022/09/16 01:38:30;;;;;;;0.20;0.20;;;21.40;59.40;;;;;;6218458;28;20037;-72
2022/09/16 01:41:49;;;;;;;0.75;0.32;;;21.50;59.20;;;;;;6217296;28;20393;-73
2022/09/16 01:45:01;;;;;;;4.22;0.30;;;21.50;59.50;;;;;;6217135;28;20085;-72
2022/09/16 01:48:11;;;;;;;0.60;0.40;;;21.50;59.30;;;;;;6217586;28;20022;-72
2022/09/16 01:51:14;;;;;;;0.43;0.30;;;21.50;59.20;;;;;;6217241;28;20038;-73
2022/09/16 01:54:47;;;;;;;1.15;0.43;;;21.50;59.30;;;;;;6217266;28;20021;-72
2022/09/16 01:57:50;;;;;;;0.40;0.30;;;21.40;59.20;;;;;;6217892;28;20041;-72
2022/09/16 02:00:58;;;;;;;0.73;0.35;;;21.50;59.30;;;;;;6217399;28;20122;-72
2022/09/16 02:04:03;;;;;;;0.40;0.30;;;21.40;59.30;;;;;;6217131;28;20049;-72
2022/09/16 02:07:07;;;;;;;0.65;0.40;;;21.40;59.10;;;;;;6218382;28;20340;-72
2022/09/16 02:10:15;;;;;;;0.50;0.50;;;21.50;59.40;;;;;;6216892;28;20449;-72
2022/09/16 02:13:29;;;;;;;0.73;0.30;;;21.40;59.20;;;;;;6215709;28;20486;-72
2022/09/16 02:16:36;;;;;;;0.85;0.30;;;21.50;59.30;;;;;;6216623;28;20033;-72
2022/09/16 02:19:40;;;;;;;0.40;0.30;;;21.50;59.40;;;;;;6216883;28;20446;-72
2022/09/16 02:22:48;;;;;;;0.30;0.22;;;21.40;59.00;;;;;;6216534;28;20022;-72
2022/09/16 02:25:49;;;;;;;0.73;0.40;;;21.50;59.30;;;;;;6223091;28;20034;-72
2022/09/16 02:28:53;;;;;;;0.60;0.40;;;21.50;59.30;;;;;;6216142;28;20033;-72
2022/09/16 02:31:59;;;;;;;0.90;0.40;;;21.50;59.40;;;;;;6222869;28;20109;-72
2022/09/16 02:35:01;;;;;;;0.20;0.20;;;21.50;59.30;;;;;;6218157;28;20022;-72
2022/09/16 02:38:21;;;;;;;0.30;0.30;;;21.40;59.20;;;;;;6217598;28;20025;-72
2022/09/16 02:41:22;;;;;;;0.47;0.35;;;21.40;59.00;;;;;;6219580;28;20591;-72
2022/09/16 02:44:24;;;;;;;0.40;0.30;;;21.40;59.20;;;;;;6216071;28;20075;-72
2022/09/16 02:47:59;;;;;;;0.50;0.40;;;21.40;59.50;;;;;;6217297;28;20045;-72
2022/09/16 02:51:21;;;;;;;1.10;0.47;;;21.40;59.30;;;;;;6216191;28;20052;-73
2022/09/16 02:54:59;;;;;;;0.38;0.38;;;21.40;59.10;;;;;;6216359;28;20018;-72
2022/09/16 02:57:59;;;;;;;0.65;0.50;;;21.40;59.10;;;;;;6215936;28;20498;-73
2022/09/16 03:01:01;;;;;;;0.50;0.30;;;21.40;59.00;;;;;;6216029;28;20105;-72
2022/09/16 03:04:02;;;;;;;0.30;0.30;;;21.40;59.10;;;;;;6216206;28;20476;-72
2022/09/16 03:07:06;;;;;;;0.60;0.30;;;21.50;59.20;;;;;;6215787;28;20082;-72
2022/09/16 03:10:13;;;;;;;0.93;0.53;;;21.40;59.40;;;;;;6222326;28;20026;-72
2022/09/16 03:13:38;;;;;;;0.50;0.40;;;21.40;59.50;;;;;;6216869;28;20073;-72
2022/09/16 03:17:15;;;;;;;0.60;0.40;;;21.40;59.30;;;;;;6217095;28;20038;-72
2022/09/16 03:20:35;;;;;;;0.60;0.40;;;21.40;59.20;;;;;;6216700;28;20105;-72
2022/09/16 03:24:09;;;;;;;0.30;0.30;;;21.40;59.30;;;;;;6215660;28;20073;-72
2022/09/16 03:27:15;;;;;;;0.52;0.30;;;21.40;59.20;;;;;;6217197;28;20104;-72
2022/09/16 03:30:16;;;;;;;0.38;0.30;;;21.40;59.10;;;;;;6215669;28;20029;-72
2022/09/16 03:33:28;;;;;;;0.32;0.32;;;21.40;59.10;;;;;;6215352;28;20065;-73
2022/09/16 03:36:34;;;;;;;0.20;0.20;;;21.40;59.00;;;;;;6215629;28;20052;-72
2022/09/16 03:39:37;;;;;;;0.30;0.30;;;21.40;59.00;;;;;;6222265;28;20424;-72
2022/09/16 03:42:39;;;;;;;0.47;0.38;;;21.40;59.10;;;;;;6289070;28;20170;-72
2022/09/16 03:45:41;;;;;;;0.40;0.30;;;21.40;59.10;;;;;;6286230;28;20082;-72
2022/09/16 03:48:42;;;;;;;0.30;0.30;;;21.40;59.20;;;;;;6285354;28;20564;-72
2022/09/16 03:51:42;;;;;;;0.40;0.35;;;21.40;59.30;;;;;;6289169;28;20044;-72
2022/09/16 03:54:43;;;;;;;0.60;0.40;;;21.40;59.20;;;;;;6288698;28;20032;-72
2022/09/16 03:57:43;;;;;;;0.20;0.20;;;21.40;59.00;;;;;;6290814;28;20564;-73
2022/09/16 04:00:49;;;;;;;1.30;0.43;;;21.40;58.60;;;;;;6273728;28;20086;-73
2022/09/16 04:03:51;;;;;;;0.52;0.30;;;21.40;59.10;;;;;;6287766;28;20094;-72
2022/09/16 04:06:52;;;;;;;1.02;0.40;;;21.40;59.10;;;;;;6288867;28;20094;-72
2022/09/16 04:09:52;;;;;;;0.45;0.30;;;21.40;58.80;;;;;;6288335;28;20037;-72
2022/09/16 04:12:56;;;;;;;0.38;0.35;;;21.40;59.90;;;;;;6263037;28;20038;-72
2022/09/16 04:15:57;;;;;;;0.23;0.23;;;21.40;58.70;;;;;;6214256;28;20026;-72
2022/09/16 04:18:58;;;;;;;1.17;0.32;;;21.40;59.20;;;;;;6214900;28;20491;-72
2022/09/16 04:21:59;;;;;;;0.30;0.30;;;21.40;59.10;;;;;;6214348;28;20081;-72
2022/09/16 04:24:59;;;;;;;0.30;0.30;;;21.40;58.50;;;;;;6214251;28;20053;-72
2022/09/16 04:28:00;;;;;;;0.40;0.40;;;21.40;58.70;;;;;;6214074;28;20026;-72
2022/09/16 04:31:03;;;;;;;0.57;0.30;;;21.40;59.00;;;;;;6214634;28;20030;-72
2022/09/16 04:34:04;;;;;;;1.25;0.40;;;21.40;58.90;;;;;;6216243;28;20041;-72
2022/09/16 04:37:05;;;;;;;0.73;0.50;;;21.40;58.70;;;;;;6214309;28;20153;-72
2022/09/16 04:40:06;;;;;;;2.40;0.30;;;21.40;58.90;;;;;;6212794;28;20044;-72
2022/09/16 04:43:06;;;;;;;1.20;0.50;;;21.40;58.50;;;;;;6214224;28;20539;-72
2022/09/16 04:46:08;;;;;;;0.30;0.30;;;21.40;59.00;;;;;;6213959;28;20179;-72
2022/09/16 04:49:08;;;;;;;0.30;0.30;;;21.50;58.80;;;;;;6213891;28;20059;-72
2022/09/16 04:52:09;;;;;;;0.30;0.20;;;21.40;58.70;;;;;;6216725;28;20034;-72
2022/09/16 04:55:10;;;;;;;0.85;0.30;;;21.40;58.60;;;;;;6217859;28;20433;-72
2022/09/16 04:58:11;;;;;;;0.30;0.30;;;21.40;58.60;;;;;;6218612;28;20025;-72
2022/09/16 05:01:14;;;;;;;0.30;0.30;;;21.40;58.90;;;;;;6214764;28;20040;-72
2022/09/16 05:04:15;;;;;;;0.85;0.45;;;21.40;59.20;;;;;;6194816;28;20050;-73
2022/09/16 05:07:15;;;;;;;0.30;0.30;;;21.40;59.10;;;;;;6216210;28;20022;-74
2022/09/16 05:10:16;;;;;;;0.90;0.55;;;21.40;59.00;;;;;;6220030;28;20022;-72
2022/09/16 05:13:16;;;;;;;0.88;0.40;;;21.40;58.30;;;;;;6219830;28;20030;-72
2022/09/16 05:16:20;;;;;;;1.27;0.40;;;21.40;58.30;;;;;;6219522;28;20079;-72
2022/09/16 05:19:21;;;;;;;0.32;0.30;;;21.40;58.60;;;;;;6219741;28;20026;-72
2022/09/16 05:22:22;;;;;;;0.98;0.35;;;21.40;58.70;;;;;;6219515;28;20045;-72
2022/09/16 05:25:22;;;;;;;0.47;0.40;;;21.40;58.30;;;;;;6218704;28;20021;-72
2022/09/16 05:28:23;;;;;;;0.52;0.28;;;21.40;58.80;;;;;;6219169;28;20022;-72
2022/09/16 05:31:25;;;;;;;0.30;0.30;;;21.40;58.60;;;;;;6218492;28;20033;-72
2022/09/16 05:34:27;;;;;;;0.95;0.30;;;21.40;58.30;;;;;;6217711;28;20543;-72
2022/09/16 05:37:28;;;;;;;0.40;0.28;;;21.40;58.40;;;;;;6216830;28;20337;-72
2022/09/16 05:40:28;;;;;;;0.85;0.40;;;21.40;58.40;;;;;;6217456;28;20030;-72
2022/09/16 05:43:29;;;;;;;0.52;0.28;;;21.40;58.30;;;;;;6215963;28;20425;-72
2022/09/16 05:46:30;;;;;;;0.50;0.30;;;21.40;58.30;;;;;;6217975;28;20022;-72
2022/09/16 05:49:30;;;;;;;0.30;0.30;;;21.40;58.20;;;;;;6219009;28;20053;-72
2022/09/16 05:52:31;;;;;;;0.22;0.22;;;21.40;58.40;;;;;;6219073;28;20764;-72
2022/09/16 05:55:32;;;;;;;0.57;0.40;;;21.40;58.40;;;;;;6218337;28;20036;-72
2022/09/16 05:58:34;;;;;;;0.85;0.50;;;21.40;58.10;;;;;;6206119;28;20033;-72
2022/09/16 06:01:35;;;;;;;0.20;0.20;;;21.40;58.10;;;;;;6219620;28;20042;-73
2022/09/16 06:04:35;;;;;;;0.85;0.40;;;21.40;58.20;;;;;;6214889;28;22535;-72
2022/09/16 06:07:36;;;;;;;6.32;1.25;;;21.40;58.60;;;;;;6211444;28;20324;-73
2022/09/16 06:10:39;;;;;;;2.10;0.73;;;21.40;57.80;;;;;;6219751;28;20036;-74
2022/09/16 06:13:39;;;;;;;3.83;0.88;;;21.40;57.70;;;;;;6220070;28;20025;-73
2022/09/16 06:16:41;;;;;;;3.58;0.82;;;21.40;57.50;;;;;;6230714;28;20021;-73
2022/09/16 06:19:41;;;;;;;4.10;0.90;;;21.30;57.10;;;;;;6193050;28;20037;-71
2022/09/16 06:22:42;;;;;;;3.83;0.73;;;21.30;56.90;;;;;;6212851;28;20147;-73
2022/09/16 06:25:43;;;;;;;3.03;0.88;;;21.40;57.80;;;;;;6209750;28;20040;-73
2022/09/16 06:28:45;;;;;;;2.50;0.93;;;21.40;57.30;;;;;;6218960;28;20021;-73
2022/09/16 06:31:46;;;;;;;2.45;0.95;;;21.40;57.50;;;;;;6209913;28;20624;-73
2022/09/16 06:34:46;;;;;;;3.08;1.10;;;21.50;56.70;;;;;;6219487;28;20026;-73
2022/09/16 06:37:47;;;;;;;5.03;1.08;;;21.50;56.90;;;;;;6219442;28;20100;-73
2022/09/16 06:40:49;;;;;;;2.70;0.80;;;21.50;56.70;;;;;;6225745;28;20029;-73
2022/09/16 06:43:50;;;;;;;5.03;0.82;;;21.50;56.50;;;;;;6223096;28;20050;-72
2022/09/16 06:46:51;;;;;;;5.20;1.23;;;21.40;57.00;;;;;;6220602;28;20033;-73
2022/09/16 06:49:51;;;;;;;3.75;0.70;;;21.40;56.50;;;;;;6219817;28;20022;-73
2022/09/16 06:52:52;;;;;;;2.35;0.80;;;21.40;56.50;;;;;;6218738;28;20107;-74
2022/09/16 06:55:53;;;;;;;2.67;0.93;;;21.40;56.30;;;;;;6219155;28;20034;-73
2022/09/16 06:58:57;;;;;;;2.50;0.70;;;21.40;56.70;;;;;;6219024;28;20445;-73
2022/09/16 07:01:57;;;;;;;5.43;1.10;;;21.40;56.30;;;;;;6230834;28;20384;-73
2022/09/16 07:05:00;;;;;;;3.08;1.00;;;21.40;56.20;;;;;;6219170;28;20037;-73
2022/09/16 07:08:01;;;;;;;3.58;1.00;;;21.40;56.70;;;;;;6218828;28;20064;-73
2022/09/16 07:11:06;;;;;;;10.60;1.30;;;21.40;56.90;;;;;;6222820;28;20383;-73
2022/09/16 07:14:08;;;;;;;4.65;0.80;;;21.40;56.80;;;;;;6223040;28;20021;-73
2022/09/16 07:17:08;;;;;;;6.80;1.20;;;21.40;56.50;;;;;;6230373;28;20472;-73
2022/09/16 07:20:09;;;;;;;3.90;1.05;;;21.40;56.70;;;;;;6218700;28;20075;-75
2022/09/16 07:23:09;;;;;;;3.20;0.77;;;21.40;56.60;;;;;;6223174;28;20034;-73
2022/09/16 07:26:18;;;;;;;3.05;0.80;;;21.40;56.80;;;;;;6218429;28;20033;-73
2022/09/16 07:29:19;;;;;;;3.95;0.93;;;21.40;56.60;;;;;;6218857;28;20063;-73
2022/09/16 07:32:20;;;;;;;3.03;1.02;;;21.40;56.50;;;;;;6217860;28;20031;-73
2022/09/16 07:35:21;;;;;;;4.35;0.75;;;21.40;55.90;;;;;;6224332;28;20026;-73
2022/09/16 07:38:22;;;;;;;2.50;0.90;;;21.40;56.00;;;;;;6216646;28;20757;-73
2022/09/16 07:41:28;;;;;;;4.05;1.00;;;21.40;56.00;;;;;;6218257;28;20042;-73
2022/09/16 07:44:28;;;;;;;4.93;1.10;;;21.40;56.10;;;;;;6218222;28;20439;-73
2022/09/16 07:47:29;;;;;;;2.53;0.73;;;21.40;56.00;;;;;;6219754;28;20093;-73
2022/09/16 07:50:30;;;;;;;3.58;0.90;;;21.40;56.10;;;;;;6217335;28;20033;-73
2022/09/16 07:53:31;;;;;;;2.65;0.85;;;21.40;56.00;;;;;;6209525;28;20022;-73
2022/09/16 07:56:34;;;;;;;3.97;0.80;;;21.40;56.80;;;;;;6214123;28;20024;-73
2022/09/16 07:59:34;;;;;;;2.25;0.73;;;21.40;56.00;;;;;;6218812;28;20025;-74
2022/09/16 08:02:35;;;;;;;2.38;0.80;;;21.40;56.20;;;;;;6217078;28;20030;-73
2022/09/16 08:05:36;;;;;;;3.03;0.85;;;21.40;56.30;;;;;;6216206;28;20036;-73
2022/09/16 08:08:36;;;;;;;2.97;1.20;;;21.40;56.70;;;;;;6216095;28;20100;-73
2022/09/16 08:11:37;;;;;;;2.15;0.93;;;21.40;56.40;;;;;;6217338;28;20716;-73
2022/09/16 08:14:38;;;;;;;1.67;0.65;;;21.40;56.50;;;;;;6218773;28;20044;-73
2022/09/16 08:17:38;;;;;;;1.40;0.82;;;21.40;57.00;;;;;;6218575;28;20021;-73
2022/09/16 08:20:39;;;;;;;3.90;0.63;;;21.40;57.00;;;;;;6217970;28;20079;-72
2022/09/16 08:23:40;;;;;;;2.95;0.65;;;21.40;57.10;;;;;;6221420;28;20026;-73
2022/09/16 08:26:41;;;;;;;1.90;0.77;;;21.40;57.40;;;;;;6219721;28;20126;-73
2022/09/16 08:29:41;;;;;;;2.70;0.95;;;21.40;57.70;;;;;;6218021;28;20404;-73
2022/09/16 08:32:42;;;;;;;2.35;0.93;;;21.40;57.00;;;;;;6224123;28;20061;-73
2022/09/16 08:35:43;;;;;;;1.60;0.60;;;21.40;57.00;;;;;;6202554;28;20068;-73
2022/09/16 08:38:44;;;;;;;2.10;0.70;;;21.40;57.50;;;;;;6217598;28;20030;-73
2022/09/16 08:41:48;;;;;;;4.05;0.88;;;21.40;57.00;;;;;;6193447;28;20212;-73
2022/09/16 08:45:27;;;;;;;5.30;1.00;;;21.40;57.30;;;;;;6317688;27;20140;-73
2022/09/16 08:48:30;;;;;;;1.33;0.90;;;21.40;57.60;;;;;;6242042;28;20388;-73
2022/09/16 08:51:31;;;;;;;1.73;0.68;;;21.40;57.20;;;;;;6242631;28;20037;-73
2022/09/16 08:54:43;;;;;;;1.00;0.60;;;21.40;57.50;;;;;;6217573;28;20026;-73
2022/09/16 08:58:09;;;;;;;2.13;0.90;;;21.40;57.50;;;;;;6215529;28;20052;-73
2022/09/16 09:01:48;;;;;;;1.98;0.70;;;21.40;57.40;;;;;;6217105;28;20036;-73
2022/09/16 09:04:49;;;;;;;2.15;0.70;;;21.40;57.80;;;;;;6218940;28;20044;-73
2022/09/16 09:08:08;;;;;;;1.55;0.70;;;21.40;57.70;;;;;;6301397;28;20384;-73
2022/09/16 09:11:26;;;;;;;2.22;0.90;;;21.40;58.00;;;;;;6212753;28;20033;-73
2022/09/16 09:14:52;;;;;;;2.42;0.63;;;21.40;57.70;;;;;;6216730;28;20022;-73
2022/09/16 09:18:11;;;;;;;;;;;21.40;57.90;;;;;;6216059;28;20427;-73
2022/09/16 09:21:23;;;;;;;2.47;1.02;;;21.40;58.40;;;;;;6216795;28;19914;-73
2022/09/16 09:24:40;;;;;;;1.33;0.60;;;21.40;57.90;;;;;;6224051;28;20014;-73
2022/09/16 09:28:16;;;;;;;2.35;0.73;;;21.40;58.00;;;;;;6216648;28;20036;-73
2022/09/16 09:31:26;;;;;;;1.75;0.70;;;21.40;58.30;;;;;;6216363;28;20022;-72
2022/09/16 09:34:26;;;;;;;2.78;0.70;;;21.40;57.90;;;;;;6216774;28;20032;-74
2022/09/16 09:37:45;;;;;;;1.30;0.50;;;21.40;58.00;;;;;;6218409;28;20037;-73
2022/09/16 09:40:55;;;;;;;1.90;0.55;;;21.40;58.10;;;;;;6219398;28;20033;-74
2022/09/16 09:44:20;;;;;;;1.00;0.45;;;21.40;57.90;;;;;;6221172;28;20042;-73
2022/09/16 09:47:24;;;;;;;1.00;0.70;;;21.40;58.30;;;;;;6196807;28;20033;-73
2022/09/16 09:50:35;;;;;;;2.75;0.68;;;21.40;57.90;;;;;;6213508;28;20030;-73
2022/09/16 09:53:42;;;;;;;2.00;0.57;;;21.40;57.80;;;;;;6315317;27;20029;-73
2022/09/16 09:56:44;;;;;;;5.28;1.02;;;21.40;58.00;;;;;;6219455;28;20069;-72
2022/09/16 10:00:13;;;;;;;3.60;0.68;;;21.40;58.30;;;;;;6219783;28;20422;-73
2022/09/16 10:03:17;;;;;;;1.58;0.80;;;21.40;58.40;;;;;;6220404;28;20037;-73
2022/09/16 10:06:32;;;;;;;4.38;0.80;;;21.40;58.10;;;;;;6220573;28;20034;-73
2022/09/16 10:09:35;;;;;;;2.47;0.70;;;21.40;58.00;;;;;;6203862;28;20074;-73
2022/09/16 10:12:35;;;;;;;4.85;1.10;;;21.40;58.10;;;;;;6220650;28;20029;-73
2022/09/16 10:15:37;;;;;;;7.68;0.70;;;21.40;57.70;;;;;;6220114;28;20018;-74
2022/09/16 10:18:38;;;;;;;4.30;0.70;;;21.40;58.00;;;;;;6220786;28;20036;-73
2022/09/16 10:21:44;;;;;;;3.10;0.70;;;21.40;57.60;;;;;;6220024;28;20040;-74
2022/09/16 10:24:56;;;;;;;4.65;0.80;;;21.50;58.50;;;;;;6220161;28;20065;-73
2022/09/16 10:28:00;;;;;;;3.28;0.70;;;21.50;57.90;;;;;;6195223;28;20018;-73
2022/09/16 10:31:01;;;;;;;3.42;0.70;;;21.50;58.00;;;;;;6212463;28;20022;-74
2022/09/16 10:34:11;;;;;;;2.78;0.68;;;21.50;58.00;;;;;;6219936;28;20124;-73
2022/09/16 10:37:12;;;;;;;3.83;0.77;;;21.50;58.00;;;;;;6220811;28;20030;-74
2022/09/16 10:40:16;;;;;;;6.95;0.80;;;21.50;58.00;;;;;;6219495;28;20423;-74
2022/09/16 10:43:16;;;;;;;2.03;0.70;;;21.50;58.00;;;;;;6219195;28;20049;-73
2022/09/16 10:46:18;;;;;;;3.88;0.70;;;21.50;58.10;;;;;;6218299;28;20022;-73
2022/09/16 10:49:25;;;;;;;2.35;0.73;;;21.50;58.10;;;;;;6218155;28;20041;-72
2022/09/16 10:52:28;;;;;;;1.45;0.70;;;21.50;58.00;;;;;;6219993;28;20380;-73
2022/09/16 10:55:34;;;;;;;1.52;0.60;;;21.40;57.80;;;;;;6204340;28;20030;-73
2022/09/16 10:58:34;;;;;;;3.13;0.88;;;21.40;57.90;;;;;;6219712;28;20030;-73
2022/09/16 11:01:54;;;;;;;4.03;0.80;;;21.40;57.30;;;;;;6219307;28;20041;-73
2022/09/16 11:05:05;;;;;;;3.30;0.90;;;21.40;57.40;;;;;;6218962;28;20022;-78
2022/09/16 11:08:46;;;;;;;2.13;0.80;;;21.40;57.50;;;;;;6219561;28;20033;-73
2022/09/16 11:12:13;;;;;;;11.50;0.90;;;21.40;58.00;;;;;;6249283;28;20033;-73
2022/09/16 11:15:50;;;;;;;4.25;1.48;;;21.40;57.70;;;;;;6199265;28;20041;-73
2022/09/16 11:19:17;;;;;;;8.20;1.00;;;21.40;57.50;;;;;;6195020;28;20050;-73
2022/09/16 11:22:24;;;;;;;9.43;1.45;;;21.50;57.70;;;;;;6231900;28;20049;-73
2022/09/16 11:25:37;;;;;;;6.00;1.00;;;21.50;57.70;;;;;;6218880;28;20033;-73
2022/09/16 11:29:03;;;;;;;8.63;1.33;;;21.50;58.00;;;;;;6219012;28;20057;-73
2022/09/16 11:32:21;;;;;;;2.55;0.85;;;21.50;57.70;;;;;;6219254;28;20438;-73
2022/09/16 11:36:04;;;;;;;5.97;1.60;;;21.50;57.80;;;;;;6218693;28;20028;-73
2022/09/16 11:39:30;;;;;;;3.78;1.10;;;21.50;57.60;;;;;;6321243;28;20126;-73
2022/09/16 11:42:36;;;;;;;;;;;21.50;58.90;;;;;;6259813;28;20063;-73
2022/09/16 11:46:02;;;;;;;3.40;1.33;;;21.50;58.70;;;;;;6218360;28;20291;-73
2022/09/16 11:49:40;;;;;;;5.35;0.90;;;21.50;58.50;;;;;;6218818;28;20025;-74
2022/09/16 11:53:14;;;;;;;5.28;1.50;;;21.50;58.30;;;;;;6215997;28;20026;-74
2022/09/16 11:56:47;;;;;;;3.97;1.58;;;21.60;58.10;;;;;;6214881;28;20071;-73
2022/09/16 12:00:03;;;;;;;2.13;1.15;;;21.60;57.80;;;;;;6192659;28;20377;-73
2022/09/16 12:03:20;;;;;;;3.47;1.55;;;21.60;58.00;;;;;;6196255;28;20038;-73
2022/09/16 12:06:25;;;;;;;6.90;2.00;;;21.60;58.00;;;;;;6240054;28;20095;-73
2022/09/16 12:09:53;;;;;;;9.45;1.65;;;21.50;57.60;;;;;;6224254;28;20021;-73
2022/09/16 12:13:03;;;;;;;8.90;1.65;;;21.50;58.20;;;;;;6216279;28;20056;-73
2022/09/16 12:16:17;;;;;;;4.05;1.70;;;21.50;58.50;;;;;;6341601;28;20020;-72
2022/09/16 12:19:26;;;;;;;4.60;1.50;;;21.50;58.40;;;;;;6218000;28;20018;-74
2022/09/16 12:22:46;;;;;;;5.18;1.50;;;21.50;58.10;;;;;;6224971;28;20025;-73
2022/09/16 12:26:13;;;;;;;4.78;1.50;;;21.50;58.10;;;;;;6224975;28;20052;-74
2022/09/16 12:29:25;;;;;;;4.15;1.38;;;21.50;58.00;;;;;;6226066;28;20038;-73
2022/09/16 12:32:42;;;;;;;5.75;1.88;;;21.60;58.00;;;;;;6218330;28;20024;-75
2022/09/16 12:35:46;;;;;;;6.43;1.80;;;21.60;58.00;;;;;;6218308;28;20026;-73
2022/09/16 12:38:47;;;;;;;5.13;2.00;;;21.60;58.00;;;;;;6218258;28;20116;-74
2022/09/16 12:42:18;;;;;;;5.35;2.05;;;21.60;57.90;;;;;;6218304;28;20434;-74
2022/09/16 12:45:38;;;;;;;6.65;2.28;;;21.60;57.90;;;;;;6206156;28;20046;-74
2022/09/16 12:49:01;;;;;;;9.70;3.15;;;21.60;57.90;;;;;;6218033;28;20026;-75
2022/09/16 12:52:16;;;;;;;6.72;2.78;;;21.60;57.90;;;;;;6206243;28;20062;-75
2022/09/16 12:55:55;;;;;;;6.38;2.63;;;21.60;58.00;;;;;;6209198;28;20389;-75
2022/09/16 12:59:19;;;;;;;8.35;3.72;;;21.60;57.90;;;;;;6224285;28;20513;-75
2022/09/16 13:02:46;;;;;;;10.05;4.47;;;21.70;57.90;;;;;;6207516;28;20038;-74
2022/09/16 13:05:52;;;;;;;9.50;4.45;;;21.70;57.80;;;;;;6298139;28;20075;-74
2022/09/16 13:08:54;;;;;;;8.70;4.40;;;21.70;57.70;;;;;;6210092;28;20127;-73
2022/09/16 13:12:05;;;;;;;10.90;5.05;;;21.70;57.70;;;;;;6209252;28;20026;-75
2022/09/16 13:15:07;;;;;;;10.90;5.40;;;21.70;57.60;;;;;;6220948;28;20056;-74
2022/09/16 13:18:19;;;;;;;11.15;5.50;;;21.80;57.70;;;;;;6215211;28;20034;-74
2022/09/16 13:21:39;;;;;;;11.57;5.90;;;21.70;57.50;;;;;;6333879;28;20019;-74
2022/09/16 13:24:44;;;;;;;12.38;6.05;;;21.80;57.60;;;;;;6238725;28;20030;-73
2022/09/16 13:28:03;;;;;;;14.80;6.78;;;21.80;57.60;;;;;;6220979;28;20030;-73
2022/09/16 13:31:13;;;;;;;13.70;6.30;;;21.70;57.70;;;;;;6197167;28;20018;-73
2022/09/16 13:34:16;;;;;;;16.08;7.82;;;21.70;57.60;;;;;;6210115;28;20071;-73
2022/09/16 13:37:25;;;;;;;12.80;7.00;;;21.70;57.60;;;;;;6221244;28;20022;-73
2022/09/16 13:40:29;;;;;;;14.27;6.63;;;21.70;57.50;;;;;;6220908;28;20026;-73
2022/09/16 13:43:40;;;;;;;17.38;7.20;;;21.70;57.50;;;;;;6220435;28;20091;-73
2022/09/16 13:46:40;;;;;;;14.52;7.05;;;21.70;57.50;;;;;;6220622;28;20473;-73
2022/09/16 13:49:49;;;;;;;13.82;7.40;;;21.70;57.50;;;;;;6219856;28;20040;-73
2022/09/16 13:52:51;;;;;;;15.00;6.93;;;21.70;57.60;;;;;;6319849;27;20169;-73
2022/09/16 13:55:59;;;;;;;12.45;6.53;;;21.70;57.60;;;;;;6220322;28;20052;-73
2022/09/16 13:59:09;;;;;;;15.43;7.50;;;21.70;57.60;;;;;;6220323;28;20029;-73
2022/09/16 14:02:32;;;;;;;15.52;6.53;;;21.70;57.50;;;;;;6220685;28;20026;-73
2022/09/16 14:05:47;;;;;;;16.25;7.80;;;21.70;57.60;;;;;;6220420;28;20030;-73
2022/09/16 14:09:12;;;;;;;15.40;7.53;;;21.70;57.60;;;;;;6318546;28;20022;-73
2022/09/16 14:12:33;;;;;;;15.75;7.38;;;21.70;57.70;;;;;;6220940;28;20014;-74
2022/09/16 14:15:39;;;;;;;13.73;7.72;;;21.70;57.70;;;;;;6257698;28;20031;-73
2022/09/16 14:18:44;;;;;;;13.38;6.90;;;21.70;57.70;;;;;;6281574;28;20497;-73
2022/09/16 14:21:45;;;;;;;;;;;21.70;57.80;;;;;;6220268;28;20026;-73
2022/09/16 14:24:46;;;;;;;17.30;7.60;;;21.70;57.90;;;;;;6219725;28;19905;-73
2022/09/16 14:27:47;;;;;;;15.43;7.72;;;21.70;58.60;;;;;;6219528;28;20433;-73
2022/09/16 14:30:51;;;;;;;12.75;7.18;;;21.60;57.80;;;;;;6224700;28;20030;-73
2022/09/16 14:33:59;;;;;;;14.20;7.10;;;21.60;57.70;;;;;;6218055;28;20080;-73
2022/09/16 14:37:01;;;;;;;17.98;7.85;;;21.60;57.70;;;;;;6224785;28;20493;-73
2022/09/16 14:40:06;;;;;;;13.88;6.97;;;21.60;57.70;;;;;;6219312;28;20018;-73
2022/09/16 14:43:16;;;;;;;11.95;7.20;;;21.60;57.80;;;;;;6226527;27;20504;-73
2022/09/16 14:46:17;;;;;;;15.32;7.50;;;21.60;57.80;;;;;;6219334;28;20030;-74
2022/09/16 14:49:18;;;;;;;14.48;6.75;;;21.60;57.90;;;;;;6219141;28;20021;-74
2022/09/16 14:52:22;;;;;;;14.93;7.18;;;21.60;58.00;;;;;;6219296;28;20362;-73
2022/09/16 14:55:26;;;;;;;16.75;8.23;;;21.60;58.00;;;;;;6218395;28;20079;-73
2022/09/16 14:58:30;;;;;;;18.63;7.75;;;21.60;57.90;;;;;;6218794;28;20030;-73
2022/09/16 15:01:30;;;;;;;19.55;7.35;;;21.60;57.70;;;;;;6218403;28;20022;-73
2022/09/16 15:04:36;;;;;;;15.68;7.20;;;21.60;57.50;;;;;;6217505;28;20108;-73
2022/09/16 15:07:39;;;;;;;14.05;7.30;;;21.60;57.50;;;;;;6200260;28;20018;-73
2022/09/16 15:10:44;;;;;;;14.43;7.07;;;21.60;57.20;;;;;;6207061;28;20108;-73
2022/09/16 15:13:45;;;;;;;10.57;6.15;;;21.60;55.60;;;;;;6219005;28;20030;-73
2022/09/16 15:16:52;;;;;;;13.77;6.40;;;21.60;55.40;;;;;;6218709;28;20037;-73
2022/09/16 15:20:02;;;;;;;18.33;5.90;;;21.60;55.60;;;;;;6225469;28;20069;-73
2022/09/16 15:23:04;;;;;;;15.95;5.00;;;21.60;55.10;;;;;;6253757;28;20485;-73
2022/09/16 15:26:13;;;;;;;10.00;5.22;;;21.60;56.00;;;;;;6218633;28;20104;-73
2022/09/16 15:29:16;;;;;;;12.20;5.90;;;21.60;56.80;;;;;;6218817;28;20033;-72
2022/09/16 15:32:22;;;;;;;11.90;5.47;;;21.50;56.60;;;;;;6218459;28;20030;-73
2022/09/16 15:35:31;;;;;;;12.23;5.00;;;21.50;56.40;;;;;;6217764;28;20096;-73
2022/09/16 15:38:31;;;;;;;12.18;4.40;;;21.50;56.10;;;;;;6217393;28;20048;-74
2022/09/16 15:41:32;;;;;;;19.08;4.82;;;21.50;56.20;;;;;;6216748;28;20388;-73
2022/09/16 15:44:33;;;;;;;10.18;3.63;;;21.50;55.90;;;;;;6217005;28;20054;-73
2022/09/16 15:47:45;;;;;;;10.60;4.05;;;21.50;55.50;;;;;;6217226;28;20350;-73
2022/09/16 15:50:48;;;;;;;7.35;3.70;;;21.50;56.20;;;;;;6216746;28;20030;-73
2022/09/16 15:53:50;;;;;;;6.50;3.22;;;21.50;56.20;;;;;;6213219;28;20125;-73
2022/09/16 15:57:18;;;;;;;7.18;3.33;;;21.50;56.20;;;;;;6217515;28;20026;-73
2022/09/16 16:00:21;;;;;;;9.07;3.45;;;21.50;55.80;;;;;;6218128;28;20018;-74
2022/09/16 16:03:21;;;;;;;12.82;3.38;;;21.50;55.60;;;;;;6217154;28;20036;-74
2022/09/16 16:06:49;;;;;;;7.55;3.00;;;21.50;52.80;;;;;;6217239;28;20380;-74
2022/09/16 16:09:50;;;;;;;9.13;3.38;;;21.50;53.10;;;;;;6195628;28;20049;-74
2022/09/16 16:12:53;;;;;;;6.57;2.75;;;21.50;54.50;;;;;;6215950;28;20384;-74
2022/09/16 16:15:53;;;;;;;8.98;2.70;;;21.50;53.70;;;;;;6217479;28;20029;-73
2022/09/16 16:18:54;;;;;;;5.95;2.58;;;21.50;54.30;;;;;;6215226;28;20026;-74